地図

経路データ

SID SEASON NUMBER BASIN SUBBASIN NAME ISO_TIME NATURE LAT LON WMO_WIND WMO_PRES WMO_AGENCY TRACK_TYPE DIST2LAND LANDFALL IFLAG USA_AGENCY USA_ATCF_ID USA_LAT USA_LON USA_RECORD USA_STATUS USA_WIND USA_PRES USA_SSHS USA_R34_NE USA_R34_SE USA_R34_SW USA_R34_NW USA_R50_NE USA_R50_SE USA_R50_SW USA_R50_NW USA_R64_NE USA_R64_SE USA_R64_SW USA_R64_NW USA_POCI USA_ROCI USA_RMW USA_EYE TOKYO_LAT TOKYO_LON TOKYO_GRADE TOKYO_WIND TOKYO_PRES TOKYO_R50_DIR TOKYO_R50_LONG TOKYO_R50_SHORT TOKYO_R30_DIR TOKYO_R30_LONG TOKYO_R30_SHORT TOKYO_LAND CMA_LAT CMA_LON CMA_CAT CMA_WIND CMA_PRES HKO_LAT HKO_LON HKO_CAT HKO_WIND HKO_PRES NEWDELHI_LAT NEWDELHI_LON NEWDELHI_GRADE NEWDELHI_WIND NEWDELHI_PRES NEWDELHI_CI NEWDELHI_DP NEWDELHI_POCI REUNION_LAT REUNION_LON REUNION_TYPE REUNION_WIND REUNION_PRES REUNION_TNUM REUNION_CI REUNION_RMW REUNION_R34_NE REUNION_R34_SE REUNION_R34_SW REUNION_R34_NW REUNION_R50_NE REUNION_R50_SE REUNION_R50_SW REUNION_R50_NW REUNION_R64_NE REUNION_R64_SE REUNION_R64_SW REUNION_R64_NW BOM_LAT BOM_LON BOM_TYPE BOM_WIND BOM_PRES BOM_TNUM BOM_CI BOM_RMW BOM_R34_NE BOM_R34_SE BOM_R34_SW BOM_R34_NW BOM_R50_NE BOM_R50_SE BOM_R50_SW BOM_R50_NW BOM_R64_NE BOM_R64_SE BOM_R64_SW BOM_R64_NW BOM_ROCI BOM_POCI BOM_EYE BOM_POS_METHOD BOM_PRES_METHOD NADI_LAT NADI_LON NADI_CAT NADI_WIND NADI_PRES WELLINGTON_LAT WELLINGTON_LON WELLINGTON_WIND WELLINGTON_PRES DS824_LAT DS824_LON DS824_STAGE DS824_WIND DS824_PRES TD9636_LAT TD9636_LON TD9636_STAGE TD9636_WIND TD9636_PRES TD9635_LAT TD9635_LON TD9635_WIND TD9635_PRES TD9635_ROCI NEUMANN_LAT NEUMANN_LON NEUMANN_CLASS NEUMANN_WIND NEUMANN_PRES MLC_LAT MLC_LON MLC_CLASS MLC_WIND MLC_PRES USA_GUST BOM_GUST BOM_GUST_PER REUNION_GUST REUNION_GUST_PER USA_SEAHGT USA_SEARAD_NE USA_SEARAD_SE USA_SEARAD_SW USA_SEARAD_NW STORM_SPEED STORM_DIR
1934192N20128 1934 31 WP MM NOT_NAMED 1934-07-10 21:00:00 NR 20.0000 128.000 main 624 624 __________O___ -1 20.0000 128.000 2 9 60
1934192N20128 1934 31 WP MM NOT_NAMED 1934-07-11 00:00:00 NR 20.2134 128.399 main 671 671 __________P___ -1 20.2134 128.399 2 9 59
1934192N20128 1934 31 WP MM NOT_NAMED 1934-07-11 03:00:00 NR 20.4411 128.779 main 717 717 __________P___ -1 20.4411 128.779 2 8 54
1934192N20128 1934 31 WP MM NOT_NAMED 1934-07-11 06:00:00 NR 20.6981 129.120 main 757 757 __________P___ -1 20.6981 129.120 2 8 46
1934192N20128 1934 31 WP MM NOT_NAMED 1934-07-11 09:00:00 NR 21.0000 129.400 main 797 797 __________O___ -1 21.0000 129.400 2 8 34
1934192N20128 1934 31 WP MM NOT_NAMED 1934-07-11 12:00:00 NR 21.3581 129.604 main 833 833 __________P___ -1 21.3581 129.604 2 8 22
1934192N20128 1934 31 WP MM NOT_NAMED 1934-07-11 15:00:00 NR 21.7671 129.735 main 852 845 __________P___ -1 21.7671 129.735 2 9 12
1934192N20128 1934 31 WP MM NOT_NAMED 1934-07-11 18:00:00 NR 22.2176 129.798 main 845 829 __________P___ -1 22.2176 129.798 2 9 3
1934192N20128 1934 31 WP MM NOT_NAMED 1934-07-11 21:00:00 NR 22.7000 129.800 main 829 803 __________O___ -1 22.7000 129.800 2 11 353
1934192N20128 1934 31 WP MM NOT_NAMED 1934-07-12 00:00:00 NR 23.3013 129.646 main 793 768 __________P___ -1 23.3013 129.646 2 13 345
1934192N20128 1934 31 WP MM NOT_NAMED 1934-07-12 03:00:00 NR 23.9139 129.453 main 768 739 __________P___ -1 23.9139 129.453 2 12 346
1934192N20128 1934 31 WP MM NOT_NAMED 1934-07-12 06:00:00 NR 24.4444 129.332 main 739 703 __________P___ -1 24.4444 129.332 2 9 357
1934192N20128 1934 31 WP MM NOT_NAMED 1934-07-12 09:00:00 NR 24.8000 129.400 main 703 697 __________O___ -1 24.8000 129.400 2 6 54
1934192N20128 1934 31 WP MM NOT_NAMED 1934-07-12 12:00:00 NR 24.7955 129.862 main 696 694 __________P___ -1 24.7955 129.862 2 10 100
1934192N20128 1934 31 WP MM NOT_NAMED 1934-07-12 15:00:00 NR 24.6217 130.507 main 714 714 __________P___ -1 24.6217 130.507 2 13 108
1934192N20128 1934 31 WP MM NOT_NAMED 1934-07-12 18:00:00 NR 24.4114 131.198 main 738 738 __________P___ -1 24.4114 131.198 2 12 105
1934192N20128 1934 31 WP MM NOT_NAMED 1934-07-12 21:00:00 NR 24.3000 131.800 main 755 738 __________O___ -1 24.3000 131.800 2 9 82
1934192N20128 1934 31 WP MM NOT_NAMED 1934-07-13 00:00:00 NR 24.5373 132.135 main 738 701 __________P___ -1 24.5373 132.135 2 8 41
1934192N20128 1934 31 WP MM NOT_NAMED 1934-07-13 03:00:00 NR 24.8833 132.368 main 701 671 __________P___ -1 24.8833 132.368 2 8 28
1934192N20128 1934 31 WP MM NOT_NAMED 1934-07-13 06:00:00 NR 25.2378 132.542 main 671 644 __________P___ -1 25.2378 132.542 2 7 26
1934192N20128 1934 31 WP MM NOT_NAMED 1934-07-13 09:00:00 NR 25.5000 132.700 main 644 636 __________O___ -1 25.5000 132.700 2 5 45
1934192N20128 1934 31 WP MM NOT_NAMED 1934-07-13 12:00:00 NR 25.5938 132.940 main 640 640 __________P___ -1 25.5938 132.940 2 4 80
1934192N20128 1934 31 WP MM NOT_NAMED 1934-07-13 15:00:00 NR 25.5751 133.169 main 650 650 __________P___ -1 25.5751 133.169 2 4 112
1934192N20128 1934 31 WP MM NOT_NAMED 1934-07-13 18:00:00 NR 25.4438 133.362 main 678 678 __________P___ -1 25.4438 133.362 2 5 141
1934192N20128 1934 31 WP MM NOT_NAMED 1934-07-13 21:00:00 NR 25.2000 133.500 main 703 703 __________O___ -1 25.2000 133.500 2 7 160
1934192N20128 1934 31 WP MM NOT_NAMED 1934-07-14 00:00:00 NR 24.8086 133.619 main 748 748 __________P___ -1 24.8086 133.619 2 9 170
1934192N20128 1934 31 WP MM NOT_NAMED 1934-07-14 03:00:00 NR 24.3217 133.673 main 804 804 __________P___ -1 24.3217 133.673 2 10 0
1934192N20128 1934 31 WP MM NOT_NAMED 1934-07-14 06:00:00 NR 23.8240 133.641 main 853 853 __________P___ -1 23.8240 133.641 2 9 190
1934192N20128 1934 31 WP MM NOT_NAMED 1934-07-14 09:00:00 NR 23.4000 133.500 main 892 892 __________O___ -1 23.4000 133.500 2 8 204
1934192N20128 1934 31 WP MM NOT_NAMED 1934-07-14 12:00:00 NR 23.1060 133.292 main 918 916 __________P___ -1 23.1060 133.292 2 7 224
1934192N20128 1934 31 WP MM NOT_NAMED 1934-07-14 15:00:00 NR 22.9035 132.972 main 932 928 __________P___ -1 22.9035 132.972 2 8 246
1934192N20128 1934 31 WP MM NOT_NAMED 1934-07-14 18:00:00 NR 22.7993 132.542 main 932 924 __________P___ -1 22.7993 132.542 2 9 263
1934192N20128 1934 31 WP MM NOT_NAMED 1934-07-14 21:00:00 NR 22.8000 132.000 main 924 907 __________O___ -1 22.8000 132.000 2 11 277
1934192N20128 1934 31 WP MM NOT_NAMED 1934-07-15 00:00:00 NR 22.9303 131.308 main 906 882 __________P___ -1 22.9303 131.308 2 14 284
1934192N20128 1934 31 WP MM NOT_NAMED 1934-07-15 03:00:00 NR 23.1511 130.520 main 871 810 __________P___ -1 23.1511 130.520 2 15 288
1934192N20128 1934 31 WP MM NOT_NAMED 1934-07-15 06:00:00 NR 23.3960 129.721 main 800 725 __________P___ -1 23.3960 129.721 2 15 288
1934192N20128 1934 31 WP MM NOT_NAMED 1934-07-15 09:00:00 NR 23.6000 129.000 main 725 673 __________O___ -1 23.6000 129.000 2 12 285
1934192N20128 1934 31 WP MM NOT_NAMED 1934-07-15 12:00:00 NR 23.6935 128.485 main 673 634 __________P___ -1 23.6935 128.485 2 9 279
1934192N20128 1934 31 WP MM NOT_NAMED 1934-07-15 15:00:00 NR 23.7373 128.059 main 634 595 __________P___ -1 23.7373 128.059 2 7 273
1934192N20128 1934 31 WP MM NOT_NAMED 1934-07-15 18:00:00 NR 23.7377 127.679 main 595 555 __________P___ -1 23.7377 127.679 2 7 267
1934192N20128 1934 31 WP MM NOT_NAMED 1934-07-15 21:00:00 NR 23.7000 127.300 main 555 517 __________O___ -1 23.7000 127.300 2 8 262
1934192N20128 1934 31 WP MM NOT_NAMED 1934-07-16 00:00:00 NR 23.6281 126.824 main 507 470 __________P___ -1 23.6281 126.824 2 9 259
1934192N20128 1934 31 WP MM NOT_NAMED 1934-07-16 03:00:00 NR 23.5230 126.347 main 460 424 __________P___ -1 23.5230 126.347 2 9 255
1934192N20128 1934 31 WP MM NOT_NAMED 1934-07-16 06:00:00 NR 23.4063 125.896 main 424 389 __________P___ -1 23.4063 125.896 2 8 254
1934192N20128 1934 31 WP MM NOT_NAMED 1934-07-16 09:00:00 NR 23.3000 125.500 main 389 365 __________O___ -1 23.3000 125.500 2 7 255
1934192N20128 1934 31 WP MM NOT_NAMED 1934-07-16 12:00:00 NR 23.2268 125.189 main 365 337 __________P___ -1 23.2268 125.189 2 5 256
1934192N20128 1934 31 WP MM NOT_NAMED 1934-07-16 15:00:00 NR 23.1692 124.933 main 337 324 __________P___ -1 23.1692 124.933 2 5 257
1934192N20128 1934 31 WP MM NOT_NAMED 1934-07-16 18:00:00 NR 23.1270 124.711 main 324 307 __________P___ -1 23.1270 124.711 2 4 260
1934192N20128 1934 31 WP MM NOT_NAMED 1934-07-16 21:00:00 NR 23.1000 124.500 main 307 289 __________O___ -1 23.1000 124.500 2 4 262
1934192N20128 1934 31 WP MM NOT_NAMED 1934-07-17 00:00:00 NR 23.0653 124.252 main 289 266 __________P___ -1 23.0653 124.252 2 5 263
1934192N20128 1934 31 WP MM NOT_NAMED 1934-07-17 03:00:00 NR 23.0475 124.012 main 266 243 __________P___ -1 23.0475 124.012 2 4 269
1934192N20128 1934 31 WP MM NOT_NAMED 1934-07-17 06:00:00 NR 23.0560 123.792 main 243 224 __________P___ -1 23.0560 123.792 2 4 278
1934192N20128 1934 31 WP MM NOT_NAMED 1934-07-17 09:00:00 NR 23.1000 123.600 main 224 211 __________O___ -1 23.1000 123.600 2 4 300
1934192N20128 1934 31 WP MM NOT_NAMED 1934-07-17 12:00:00 NR 23.2335 123.451 main 211 186 __________P___ -1 23.2335 123.451 2 4 320
1934192N20128 1934 31 WP MM NOT_NAMED 1934-07-17 15:00:00 NR 23.3947 123.328 main 186 172 __________P___ -1 23.3947 123.328 2 4 324
1934192N20128 1934 31 WP MM NOT_NAMED 1934-07-17 18:00:00 NR 23.5336 123.216 main 172 157 __________P___ -1 23.5336 123.216 2 3 314
1934192N20128 1934 31 WP MM NOT_NAMED 1934-07-17 21:00:00 NR 23.6000 123.100 main 157 150 __________O___ -1 23.6000 123.100 2 2 267
1934192N20128 1934 31 WP MM NOT_NAMED 1934-07-18 00:00:00 NR 23.5208 122.973 main 154 136 __________P___ -1 23.5208 122.973 2 3 226
1934192N20128 1934 31 WP MM NOT_NAMED 1934-07-18 03:00:00 NR 23.3673 122.837 main 136 130 __________P___ -1 23.3673 122.837 2 4 218
1934192N20128 1934 31 WP MM NOT_NAMED 1934-07-18 06:00:00 NR 23.1801 122.683 main 132 113 __________P___ -1 23.1801 122.683 2 5 220
1934192N20128 1934 31 WP MM NOT_NAMED 1934-07-18 09:00:00 NR 23.0000 122.500 main 113 98 __________O___ -1 23.0000 122.500 2 5 224
1934192N20128 1934 31 WP MM NOT_NAMED 1934-07-18 12:00:00 NR 22.7924 122.270 main 98 83 __________P___ -1 22.7924 122.270 2 6 229
1934192N20128 1934 31 WP MM NOT_NAMED 1934-07-18 15:00:00 NR 22.6127 122.013 main 83 75 __________P___ -1 22.6127 122.013 2 5 241
1934192N20128 1934 31 WP MM NOT_NAMED 1934-07-18 18:00:00 NR 22.5267 121.751 main 75 45 __________P___ -1 22.5267 121.751 2 5 268
1934192N20128 1934 31 WP MM NOT_NAMED 1934-07-18 21:00:00 NR 22.6000 121.500 main 45 10 __________O___ -1 22.6000 121.500 2 6 315
1934192N20128 1934 31 WP MM NOT_NAMED 1934-07-19 00:00:00 NR 22.9583 121.283 main 0 0 __________P___ -1 22.9583 121.283 2 10 336
1934192N20128 1934 31 WP MM NOT_NAMED 1934-07-19 03:00:00 NR 23.4674 121.079 main 0 0 __________P___ -1 23.4674 121.079 2 11 341
1934192N20128 1934 31 WP MM NOT_NAMED 1934-07-19 06:00:00 NR 24.0178 120.886 main 0 0 __________P___ -1 24.0178 120.886 2 11 341
1934192N20128 1934 31 WP MM NOT_NAMED 1934-07-19 09:00:00 NR 24.5000 120.700 main 0 0 __________O___ -1 24.5000 120.700 2 8 335
1934192N20128 1934 31 WP MM NOT_NAMED 1934-07-19 12:00:00 NR 24.7368 120.509 main 23 23 __________P___ -1 24.7368 120.509 2 5 319
1934192N20128 1934 31 WP MM NOT_NAMED 1934-07-19 15:00:00 NR 24.8949 120.326 main 52 52 __________P___ -1 24.8949 120.326 2 4 313
1934192N20128 1934 31 WP MM NOT_NAMED 1934-07-19 18:00:00 NR 25.0306 120.156 main 67 37 __________P___ -1 25.0306 120.156 2 4 316
1934192N20128 1934 31 WP MM NOT_NAMED 1934-07-19 21:00:00 NR 25.2000 120.000 main 37 20 __________O___ -1 25.2000 120.000 2 5 329
1934192N20128 1934 31 WP MM NOT_NAMED 1934-07-20 00:00:00 NR 25.4736 119.864 main 22 10 __________P___ -1 25.4736 119.864 2 6 338
1934192N20128 1934 31 WP MM NOT_NAMED 1934-07-20 03:00:00 NR 25.7899 119.742 main 10 0 __________P___ -1 25.7899 119.742 2 7 342
1934192N20128 1934 31 WP MM NOT_NAMED 1934-07-20 06:00:00 NR 26.1362 119.624 main 9 0 __________P___ -1 26.1362 119.624 2 7 343
1934192N20128 1934 31 WP MM NOT_NAMED 1934-07-20 09:00:00 NR 26.5000 119.500 main 0 0 __________O___ -1 26.5000 119.500 2 8 341
1934192N20128 1934 31 WP MM NOT_NAMED 1934-07-20 12:00:00 NR 26.8688 119.337 main 0 0 __________P___ -1 26.8688 119.337 2 8 339
1934192N20128 1934 31 WP MM NOT_NAMED 1934-07-20 15:00:00 NR 27.2502 119.171 main 0 0 __________P___ -1 27.2502 119.171 2 8 340
1934192N20128 1934 31 WP MM NOT_NAMED 1934-07-20 18:00:00 NR 27.6314 119.019 main 0 0 __________P___ -1 27.6314 119.019 2 8 342
1934192N20128 1934 31 WP MM NOT_NAMED 1934-07-20 21:00:00 NR 28.0000 118.900 main 0 0 __________O___ -1 28.0000 118.900 2 7 342
1934192N20128 1934 31 WP MM NOT_NAMED 1934-07-21 00:00:00 NR 28.2781 118.780 main 0 0 __________P___ -1 28.2781 118.780 2 6 342
1934192N20128 1934 31 WP MM NOT_NAMED 1934-07-21 03:00:00 NR 28.5519 118.703 main 0 0 __________P___ -1 28.5519 118.703 2 6 354
1934192N20128 1934 31 WP MM NOT_NAMED 1934-07-21 06:00:00 NR 28.8748 118.700 main 0 0 __________P___ -1 28.8748 118.700 2 8 7
1934192N20128 1934 31 WP MM NOT_NAMED 1934-07-21 09:00:00 NR 29.3000 118.800 main 0 0 __________O___ -1 29.3000 118.800 2 11 16
1934192N20128 1934 31 WP MM NOT_NAMED 1934-07-21 12:00:00 NR 29.9580 119.058 main 0 0 __________P___ -1 29.9580 119.058 2 15 21
1934192N20128 1934 31 WP MM NOT_NAMED 1934-07-21 15:00:00 NR 30.7089 119.418 main 0 0 __________P___ -1 30.7089 119.418 2 16 24
1934192N20128 1934 31 WP MM NOT_NAMED 1934-07-21 18:00:00 NR 31.4551 119.820 main 0 0 __________P___ -1 31.4551 119.820 2 15 26
1934192N20128 1934 31 WP MM NOT_NAMED 1934-07-21 21:00:00 NR 32.1000 120.200 main 0 0 __________O___ -1 32.1000 120.200 2 11 25
1934192N20128 1934 31 WP MM NOT_NAMED 1934-07-22 00:00:00 NR 32.4924 120.385 main 0 0 __________P___ -1 32.4924 120.385 2 7 23
1934192N20128 1934 31 WP MM NOT_NAMED 1934-07-22 03:00:00 NR 32.7789 120.546 main 0 0 __________P___ -1 32.7789 120.546 2 6 30
1934192N20128 1934 31 WP MM NOT_NAMED 1934-07-22 06:00:00 NR 33.0261 120.758 main 0 0 __________P___ -1 33.0261 120.758 2 7 42
1934192N20128 1934 31 WP MM NOT_NAMED 1934-07-22 09:00:00 NR 33.3000 121.100 main 38 38 __________O___ -1 33.3000 121.100 2 11 50
1934192N20128 1934 31 WP MM NOT_NAMED 1934-07-22 12:00:00 NR 33.7340 121.752 main 113 113 __________P___ -1 33.7340 121.752 2 15 53
1934192N20128 1934 31 WP MM NOT_NAMED 1934-07-22 15:00:00 NR 34.1938 122.533 main 191 191 __________P___ -1 34.1938 122.533 2 16 55
1934192N20128 1934 31 WP MM NOT_NAMED 1934-07-22 18:00:00 NR 34.6310 123.324 main 261 200 __________P___ -1 34.6310 123.324 2 15 56
1934192N20128 1934 31 WP MM NOT_NAMED 1934-07-22 21:00:00 NR 35.0000 124.000 main 200 163 __________O___ -1 35.0000 124.000 2 11 54
1934192N20128 1934 31 WP MM NOT_NAMED 1934-07-23 00:00:00 NR 35.2480 124.379 main 163 148 __________P___ -1 35.2480 124.379 2 7 50
1934192N20128 1934 31 WP MM NOT_NAMED 1934-07-23 03:00:00 NR 35.4289 124.625 main 148 134 __________P___ -1 35.4289 124.625 2 5 47
1934192N20128 1934 31 WP MM NOT_NAMED 1934-07-23 06:00:00 NR 35.5706 124.809 main 138 127 __________P___ -1 35.5706 124.809 2 4 48
1934192N20128 1934 31 WP MM NOT_NAMED 1934-07-23 09:00:00 NR 35.7000 125.000 main 127 119 __________O___ -1 35.7000 125.000 2 5 54
1934192N20128 1934 31 WP MM NOT_NAMED 1934-07-23 12:00:00 NR 35.8386 125.255 main 110 76 __________P___ -1 35.8386 125.255 2 5 58
1934192N20128 1934 31 WP MM NOT_NAMED 1934-07-23 15:00:00 NR 35.9875 125.569 main 76 48 __________P___ -1 35.9875 125.569 2 6 61
1934192N20128 1934 31 WP MM NOT_NAMED 1934-07-23 18:00:00 NR 36.1425 125.924 main 48 11 __________P___ -1 36.1425 125.924 2 7 62
1934192N20128 1934 31 WP MM NOT_NAMED 1934-07-23 21:00:00 NR 36.3000 126.300 main 11 __________O___ -1 36.3000 126.300 2 7 63

デジタル台風データ・検索

IBTrACS Databaseについて

本データベースは、米国NOAAが公開する1842年以降の世界の熱帯低気圧のベストトラックデータアーカイブInternational Best Track Archive for Climate Stewardship (IBTrACS)を、ウェブで閲覧しやすい形式に変換したものです。

最終更新日:2021-11-26